createdAt,value
2022-10-16T00:01:41.545Z,90.89
2022-10-16T00:04:10.275Z,91.30
2022-10-16T00:06:38.290Z,91.69
2022-10-16T00:09:06.783Z,91.21
2022-10-16T00:11:36.409Z,90.31
2022-10-16T00:14:06.372Z,91.02
2022-10-16T00:16:34.706Z,92.16
2022-10-16T00:19:02.738Z,91.11
2022-10-16T00:21:31.943Z,91.23
2022-10-16T00:24:02.437Z,91.08
2022-10-16T00:26:31.875Z,92.16
2022-10-16T00:28:59.251Z,91.02
2022-10-16T00:31:27.612Z,90.93
2022-10-16T00:33:55.251Z,91.33
2022-10-16T00:36:24.335Z,92.01
2022-10-16T00:38:57.186Z,92.83
2022-10-16T00:41:28.815Z,92.02
2022-10-16T00:44:01.707Z,93.78
2022-10-16T00:46:41.487Z,92.99
2022-10-16T00:49:13.865Z,92.30
2022-10-16T00:51:48.006Z,91.64
2022-10-16T00:54:23.552Z,93.13
2022-10-16T00:56:51.298Z,92.36
2022-10-16T00:59:27.222Z,91.84
2022-10-16T01:01:58.504Z,92.38
2022-10-16T01:04:27.692Z,91.90
2022-10-16T01:07:32.693Z,90.87
2022-10-16T01:10:28.308Z,90.71
2022-10-16T01:13:07.333Z,90.85
2022-10-16T01:15:46.919Z,90.45
2022-10-16T01:18:31.774Z,90.66
2022-10-16T01:21:05.000Z,92.18
2022-10-16T01:24:10.126Z,91.78
2022-10-16T01:26:37.438Z,90.93
2022-10-16T01:29:18.001Z,91.53
2022-10-16T01:31:51.513Z,92.03
2022-10-16T01:34:26.052Z,92.18
2022-10-16T01:37:03.440Z,90.92
2022-10-16T01:39:34.464Z,91.84
2022-10-16T01:42:11.244Z,91.33
2022-10-16T01:44:40.610Z,93.14
2022-10-16T01:47:11.303Z,91.04
2022-10-16T01:49:41.999Z,91.66
2022-10-16T01:52:15.446Z,92.09
2022-10-16T01:54:47.215Z,92.32
2022-10-16T01:57:17.244Z,91.32
2022-10-16T01:59:49.534Z,90.89
2022-10-16T02:02:19.443Z,91.30
2022-10-16T02:04:57.288Z,91.08
2022-10-16T02:07:24.791Z,91.27
2022-10-16T02:09:52.196Z,90.60
2022-10-16T02:12:29.099Z,90.06
2022-10-16T02:14:59.260Z,91.41
2022-10-16T02:17:29.282Z,91.52
2022-10-16T02:20:01.391Z,91.41
2022-10-16T02:22:34.696Z,91.39
2022-10-16T02:25:13.464Z,92.38
2022-10-16T02:27:48.780Z,92.30
2022-10-16T02:30:26.345Z,91.41
2022-10-16T02:32:55.589Z,90.75
2022-10-16T02:35:25.271Z,90.67
2022-10-16T02:37:54.579Z,91.58
2022-10-16T02:40:25.184Z,91.72
2022-10-16T02:42:54.740Z,91.21
2022-10-16T02:45:23.046Z,92.30
2022-10-16T02:47:50.582Z,91.49
2022-10-16T02:50:18.034Z,91.22
2022-10-16T02:52:48.363Z,91.07
2022-10-16T02:55:16.146Z,93.18
2022-10-16T02:57:43.581Z,92.94
2022-10-16T03:00:16.249Z,92.36
2022-10-16T03:06:24.474Z,93.26
2022-10-16T03:08:53.827Z,92.41
2022-10-16T03:11:21.237Z,91.68
2022-10-16T03:13:48.833Z,91.76
2022-10-16T03:16:16.364Z,91.82
2022-10-16T03:18:44.003Z,91.54
2022-10-16T03:21:11.431Z,91.71
2022-10-16T03:23:39.012Z,92.18
2022-10-16T03:26:06.553Z,93.03
2022-10-16T03:28:34.346Z,93.56
2022-10-16T03:31:05.731Z,93.50
2022-10-16T03:33:33.209Z,93.50
2022-10-16T03:36:01.440Z,94.20
2022-10-16T03:38:43.659Z,94.18
2022-10-16T03:41:11.148Z,94.19
2022-10-16T03:43:38.559Z,94.52
2022-10-16T03:46:06.380Z,94.39
2022-10-16T03:48:35.321Z,94.73
2022-10-16T03:51:03.699Z,94.17
2022-10-16T03:53:31.877Z,94.09
2022-10-16T03:55:59.938Z,93.46
2022-10-16T03:58:27.956Z,93.46
2022-10-16T04:00:56.827Z,94.01
2022-10-16T04:03:24.859Z,94.46
2022-10-16T04:05:53.428Z,96.43
2022-10-16T04:08:24.690Z,94.26
2022-10-16T04:10:56.000Z,86.30
2022-10-16T04:13:24.267Z,81.35
2022-10-16T04:15:51.610Z,76.80
2022-10-16T04:18:19.099Z,72.58
2022-10-16T04:20:46.589Z,74.81
2022-10-16T04:23:14.139Z,75.04
2022-10-16T04:25:44.701Z,81.76
2022-10-16T04:28:12.378Z,89.81
2022-10-16T04:30:40.152Z,81.09
2022-10-16T04:33:10.430Z,75.97
2022-10-16T04:35:38.230Z,83.39
2022-10-16T04:38:06.072Z,87.16
2022-10-16T04:40:33.666Z,88.63
2022-10-16T04:43:01.013Z,90.34
2022-10-16T04:45:28.479Z,90.86
2022-10-16T04:48:00.351Z,92.95
2022-10-16T04:50:28.096Z,92.30
2022-10-16T04:52:56.133Z,93.81
2022-10-16T04:55:23.891Z,94.28
2022-10-16T04:57:51.655Z,94.61
2022-10-16T05:00:19.373Z,95.34
2022-10-16T05:02:47.541Z,95.30
2022-10-16T05:05:15.710Z,96.58
2022-10-16T05:07:43.665Z,96.17
2022-10-16T05:10:11.605Z,95.76
2022-10-16T05:12:42.645Z,92.83
2022-10-16T05:15:11.474Z,97.06
2022-10-16T05:17:44.865Z,96.66
2022-10-16T05:20:13.350Z,96.36
2022-10-16T05:22:40.809Z,93.59
2022-10-16T05:25:08.416Z,92.30
2022-10-16T05:27:36.617Z,92.63
2022-10-16T05:30:06.477Z,92.99
2022-10-16T05:32:38.925Z,94.63
2022-10-16T05:35:12.672Z,91.71
2022-10-16T05:37:40.311Z,92.41
2022-10-16T05:40:13.595Z,93.62
2022-10-16T05:42:42.035Z,94.29
2022-10-16T05:45:13.077Z,94.46
2022-10-16T05:47:41.147Z,91.09
2022-10-16T05:50:12.080Z,91.73
2022-10-16T05:52:39.600Z,91.15
2022-10-16T05:55:07.804Z,91.64
2022-10-16T05:57:37.850Z,90.88
2022-10-16T06:00:06.712Z,91.51
2022-10-16T06:02:34.189Z,89.33
2022-10-16T06:05:01.758Z,89.71
2022-10-16T06:07:29.655Z,90.21
2022-10-16T06:09:57.887Z,88.68
2022-10-16T06:12:28.478Z,90.61
2022-10-16T06:14:56.376Z,88.36
2022-10-16T06:17:24.643Z,87.20
2022-10-16T06:19:55.074Z,87.38
2022-10-16T06:22:22.551Z,87.34
2022-10-16T06:24:53.531Z,87.79
2022-10-16T06:27:21.705Z,89.11
2022-10-16T06:29:49.197Z,88.47
2022-10-16T06:32:20.149Z,91.93
2022-10-16T06:34:48.114Z,90.98
2022-10-16T06:37:21.202Z,88.19
2022-10-16T06:39:52.355Z,88.21
2022-10-16T06:42:23.055Z,88.90
2022-10-16T06:44:51.228Z,89.37
2022-10-16T06:47:22.113Z,88.78
2022-10-16T06:49:53.438Z,89.45
2022-10-16T06:52:28.775Z,89.34
2022-10-16T06:54:56.899Z,92.28
2022-10-16T06:57:27.014Z,88.51
2022-10-16T07:00:01.503Z,89.37
2022-10-16T07:02:29.736Z,87.52
2022-10-16T07:04:57.425Z,91.89
2022-10-16T07:07:28.093Z,81.70
2022-10-16T07:09:55.722Z,82.26
2022-10-16T07:12:26.530Z,84.45
2022-10-16T07:14:54.559Z,82.81
2022-10-16T07:17:28.673Z,82.92
2022-10-16T07:20:01.300Z,82.95
2022-10-16T07:22:30.472Z,82.25
2022-10-16T07:24:57.886Z,82.39
2022-10-16T07:27:28.568Z,81.41
2022-10-16T07:30:02.614Z,81.75
2022-10-16T07:32:34.096Z,80.91
2022-10-16T07:35:06.680Z,80.18
2022-10-16T07:37:34.211Z,81.37
2022-10-16T07:40:05.692Z,80.39
2022-10-16T07:42:36.831Z,81.43
2022-10-16T07:45:07.526Z,80.09
2022-10-16T07:47:35.145Z,80.47
2022-10-16T07:50:05.794Z,80.79
2022-10-16T07:52:37.373Z,80.12
2022-10-16T07:55:05.910Z,79.58
2022-10-16T07:57:36.189Z,80.54
2022-10-16T08:00:04.537Z,78.70
2022-10-16T08:02:38.592Z,78.42
2022-10-16T08:05:09.674Z,80.01
2022-10-16T08:07:37.762Z,78.07
2022-10-16T08:10:20.809Z,78.19
2022-10-16T08:12:52.051Z,76.15
2022-10-16T08:15:23.162Z,76.22
2022-10-16T08:17:59.286Z,76.79
2022-10-16T08:20:31.184Z,71.11
2022-10-16T08:23:10.058Z,72.24
2022-10-16T08:25:43.101Z,73.30
2022-10-16T08:28:12.250Z,73.91
2022-10-16T08:30:45.553Z,73.02
2022-10-16T08:33:13.523Z,73.16
2022-10-16T08:35:41.825Z,74.01
2022-10-16T08:38:15.762Z,73.39
2022-10-16T08:40:49.904Z,73.03
2022-10-16T08:43:23.253Z,73.52
2022-10-16T08:45:57.053Z,77.62
2022-10-16T08:48:37.080Z,74.78
2022-10-16T08:51:06.356Z,72.82
2022-10-16T08:53:54.948Z,70.99
2022-10-16T08:56:23.645Z,70.23
2022-10-16T08:58:56.554Z,70.81
2022-10-16T09:01:42.158Z,70.13
2022-10-16T09:04:34.534Z,70.01
2022-10-16T09:07:18.836Z,69.65
2022-10-16T09:10:14.504Z,66.76
2022-10-16T09:13:07.435Z,66.38
2022-10-16T09:15:56.138Z,65.06
2022-10-16T09:18:43.820Z,64.90
2022-10-16T09:21:42.402Z,64.75
2022-10-16T09:24:18.925Z,65.57
2022-10-16T09:26:50.674Z,63.81
2022-10-16T09:29:23.818Z,63.82
2022-10-16T09:31:53.920Z,62.47
2022-10-16T09:34:29.931Z,62.73
2022-10-16T09:37:05.157Z,60.92
2022-10-16T09:39:55.203Z,60.54
2022-10-16T09:42:35.447Z,60.36
2022-10-16T09:45:06.806Z,62.68
2022-10-16T09:47:43.409Z,57.97
2022-10-16T09:50:37.396Z,58.58
2022-10-16T09:53:16.454Z,60.82
2022-10-16T09:55:58.182Z,58.81
2022-10-16T09:58:26.297Z,57.77
2022-10-16T10:00:59.452Z,58.20
2022-10-16T10:03:40.420Z,59.44
2022-10-16T10:06:19.148Z,58.64
2022-10-16T10:09:02.120Z,59.09
2022-10-16T10:11:49.609Z,57.88
2022-10-16T10:14:33.500Z,60.32
2022-10-16T10:17:12.624Z,59.66
2022-10-16T10:19:57.640Z,59.45
2022-10-16T10:22:39.686Z,58.84
2022-10-16T10:25:37.329Z,59.39
2022-10-16T10:28:14.238Z,59.71
2022-10-16T10:31:12.706Z,59.92
2022-10-16T10:33:54.400Z,59.89
2022-10-16T10:36:33.454Z,59.49
2022-10-16T10:39:15.107Z,57.47
2022-10-16T10:41:57.870Z,57.90
2022-10-16T10:44:49.376Z,56.76
2022-10-16T10:47:38.805Z,60.95
2022-10-16T10:50:42.412Z,56.57
2022-10-16T10:53:31.391Z,57.43
2022-10-16T10:56:05.918Z,59.09
2022-10-16T10:58:51.717Z,58.84
2022-10-16T11:01:35.484Z,57.83
2022-10-16T11:04:37.016Z,57.23
2022-10-16T11:07:16.484Z,56.38
2022-10-16T11:09:59.533Z,57.32
2022-10-16T11:12:41.396Z,56.56
2022-10-16T11:15:18.172Z,57.10
2022-10-16T11:17:53.067Z,58.15
2022-10-16T11:20:48.168Z,59.09
2022-10-16T11:23:26.551Z,56.56
2022-10-16T11:26:01.898Z,55.95
2022-10-16T11:28:44.313Z,56.63
2022-10-16T11:31:17.898Z,56.33
2022-10-16T11:33:47.597Z,56.42
2022-10-16T11:36:56.834Z,56.13
2022-10-16T11:39:31.565Z,57.19
2022-10-16T11:42:05.755Z,57.48
2022-10-16T11:45:01.956Z,55.69
2022-10-16T11:47:59.152Z,56.77
2022-10-16T11:50:55.018Z,56.36
2022-10-16T11:53:54.843Z,58.25
2022-10-16T11:56:26.313Z,54.44
2022-10-16T11:59:04.961Z,55.62
2022-10-16T12:01:47.264Z,55.86
2022-10-16T12:04:39.642Z,55.33
2022-10-16T12:07:21.575Z,57.43
2022-10-16T12:09:52.100Z,54.96
2022-10-16T12:12:41.455Z,53.92
2022-10-16T12:15:47.354Z,55.42
2022-10-16T12:18:25.699Z,53.74
2022-10-16T12:21:01.554Z,55.07
2022-10-16T12:23:31.950Z,54.42
2022-10-16T12:26:02.146Z,55.69
2022-10-16T12:28:35.245Z,54.60
2022-10-16T12:31:08.853Z,54.51
2022-10-16T12:33:40.604Z,54.99
2022-10-16T12:36:36.544Z,60.78
2022-10-16T12:39:04.766Z,62.41
2022-10-16T12:41:34.918Z,53.33
2022-10-16T12:44:05.120Z,56.02
2022-10-16T12:46:41.471Z,50.99
2022-10-16T12:49:18.378Z,52.33
2022-10-16T12:51:46.175Z,52.84
2022-10-16T12:54:15.119Z,53.35
2022-10-16T12:56:55.479Z,53.65
2022-10-16T12:59:32.021Z,57.44
2022-10-16T13:02:58.772Z,54.14
2022-10-16T13:08:18.716Z,53.84
2022-10-16T13:10:58.185Z,54.64
2022-10-16T13:13:33.531Z,53.44
2022-10-16T13:16:37.289Z,54.42
2022-10-16T13:19:22.719Z,55.10
2022-10-16T13:22:01.758Z,54.43
2022-10-16T13:24:37.656Z,53.57
2022-10-16T13:27:17.242Z,53.92
2022-10-16T13:29:44.886Z,53.83
2022-10-16T13:32:15.933Z,54.16
2022-10-16T13:34:48.700Z,54.75
2022-10-16T13:37:22.334Z,55.43
2022-10-16T13:39:50.573Z,53.72
2022-10-16T13:42:28.255Z,54.52
2022-10-16T13:44:57.260Z,55.08
2022-10-16T13:47:28.173Z,54.45
2022-10-16T13:50:02.057Z,54.44
2022-10-16T13:52:30.042Z,54.52
2022-10-16T13:55:00.928Z,54.65
2022-10-16T13:57:32.614Z,54.56
2022-10-16T14:00:00.475Z,54.61
2022-10-16T14:02:34.716Z,55.77
2022-10-16T14:05:05.102Z,57.37
2022-10-16T14:07:35.325Z,56.59
2022-10-16T14:10:08.076Z,56.05
2022-10-16T14:12:36.350Z,56.19
2022-10-16T14:15:04.191Z,64.68
2022-10-16T14:17:36.917Z,60.18
2022-10-16T14:20:07.097Z,59.53
2022-10-16T14:22:40.477Z,55.64
2022-10-16T14:25:20.376Z,55.06
2022-10-16T14:28:17.723Z,55.54
2022-10-16T14:31:00.664Z,55.18
2022-10-16T14:33:31.105Z,55.15
2022-10-16T14:36:10.813Z,56.29
2022-10-16T14:38:49.255Z,54.92
2022-10-16T14:41:21.182Z,56.32
2022-10-16T14:43:56.284Z,57.77
2022-10-16T14:46:32.793Z,55.03
2022-10-16T14:49:19.058Z,56.90
2022-10-16T14:51:47.196Z,55.20
2022-10-16T14:54:19.194Z,57.88
2022-10-16T14:56:52.725Z,55.96
2022-10-16T14:59:30.008Z,57.11
2022-10-16T15:01:57.966Z,58.51
2022-10-16T15:04:25.608Z,58.73
2022-10-16T15:06:53.127Z,59.30
2022-10-16T15:09:23.151Z,60.26
2022-10-16T15:11:53.674Z,60.88
2022-10-16T15:14:23.685Z,61.42
2022-10-16T15:16:51.185Z,62.25
2022-10-16T15:19:18.572Z,63.25
2022-10-16T15:21:46.490Z,63.01
2022-10-16T15:24:16.690Z,63.30
2022-10-16T15:26:47.201Z,64.67
2022-10-16T15:29:15.289Z,65.84
2022-10-16T15:31:48.545Z,65.36
2022-10-16T15:34:21.981Z,66.59
2022-10-16T15:36:52.410Z,67.05
2022-10-16T15:39:25.866Z,67.15
2022-10-16T15:41:53.336Z,67.86
2022-10-16T15:44:24.414Z,69.21
2022-10-16T15:46:51.797Z,68.57
2022-10-16T15:49:19.239Z,68.80
2022-10-16T15:51:47.297Z,68.81
2022-10-16T15:54:14.799Z,69.31
2022-10-16T15:56:42.359Z,69.23
2022-10-16T15:59:09.999Z,70.14
2022-10-16T16:01:37.628Z,71.25
2022-10-16T16:04:10.827Z,72.15
2022-10-16T16:06:42.929Z,72.21
2022-10-16T16:09:10.439Z,71.58
2022-10-16T16:11:38.459Z,72.04
2022-10-16T16:14:13.885Z,72.96
2022-10-16T16:16:44.597Z,72.52
2022-10-16T16:19:15.245Z,72.27
2022-10-16T16:21:42.810Z,72.29
2022-10-16T16:24:10.465Z,72.56
2022-10-16T16:26:38.146Z,73.99
2022-10-16T16:29:05.839Z,73.74
2022-10-16T16:31:33.865Z,74.72
2022-10-16T16:34:02.033Z,74.88
2022-10-16T16:36:33.383Z,74.98
2022-10-16T16:39:03.925Z,75.33
2022-10-16T16:41:33.961Z,75.34
2022-10-16T16:44:08.430Z,75.80
2022-10-16T16:46:38.691Z,75.44
2022-10-16T16:49:07.153Z,74.71
2022-10-16T16:51:37.078Z,75.48
2022-10-16T16:54:07.900Z,76.02
2022-10-16T16:56:37.527Z,75.99
2022-10-16T16:59:07.732Z,75.76
2022-10-16T17:01:38.057Z,75.86
2022-10-16T17:04:07.256Z,75.44
2022-10-16T17:06:35.431Z,75.67
2022-10-16T17:09:09.055Z,76.41
2022-10-16T17:11:36.763Z,76.43
2022-10-16T17:14:07.295Z,76.04
2022-10-16T17:16:37.694Z,76.53
2022-10-16T17:19:11.876Z,76.75
2022-10-16T17:21:44.998Z,75.76
2022-10-16T17:24:12.682Z,75.21
2022-10-16T17:26:43.124Z,74.22
2022-10-16T17:29:12.983Z,74.02
2022-10-16T17:31:40.997Z,73.85
2022-10-16T17:34:09.933Z,74.15
2022-10-16T17:36:41.374Z,73.95
2022-10-16T17:39:11.845Z,74.11
2022-10-16T17:41:45.704Z,74.99
2022-10-16T17:44:20.720Z,75.83
2022-10-16T17:46:53.585Z,76.49
2022-10-16T17:51:54.416Z,77.92
2022-10-16T17:54:22.155Z,78.70
2022-10-16T17:56:49.765Z,79.14
2022-10-16T17:59:20.928Z,78.82
2022-10-16T18:01:53.604Z,79.29
2022-10-16T18:04:21.677Z,79.58
2022-10-16T18:06:49.473Z,79.32
2022-10-16T18:09:18.806Z,79.63
2022-10-16T18:11:46.695Z,80.43
2022-10-16T18:14:16.979Z,80.82
2022-10-16T18:16:47.997Z,80.90
2022-10-16T18:19:15.743Z,79.97
2022-10-16T18:21:43.325Z,79.82
2022-10-16T18:28:01.050Z,80.17
2022-10-16T18:30:29.526Z,80.49
2022-10-16T18:32:57.178Z,79.86
2022-10-16T18:35:24.688Z,79.77
2022-10-16T18:37:52.178Z,80.33
2022-10-16T18:40:25.164Z,80.15
2022-10-16T18:42:56.374Z,79.48
2022-10-16T18:45:24.123Z,78.98
2022-10-16T18:47:54.365Z,78.70
2022-10-16T18:50:24.389Z,79.28
2022-10-16T18:52:55.761Z,78.86
2022-10-16T18:55:30.770Z,79.66
2022-10-16T18:57:59.165Z,79.89
2022-10-16T19:00:26.731Z,80.31
2022-10-16T19:02:54.431Z,79.93
2022-10-16T19:05:22.094Z,81.01
2022-10-16T19:07:49.644Z,82.18
2022-10-16T19:10:17.720Z,82.22
2022-10-16T19:12:45.448Z,81.92
2022-10-16T19:15:13.006Z,82.17
2022-10-16T19:17:46.802Z,82.58
2022-10-16T19:20:17.672Z,81.95
2022-10-16T19:22:54.864Z,83.34
2022-10-16T19:25:23.012Z,83.54
2022-10-16T19:27:56.751Z,84.13
2022-10-16T19:30:27.712Z,84.86
2022-10-16T19:32:58.003Z,85.73
2022-10-16T19:35:27.483Z,86.12
2022-10-16T19:37:55.418Z,87.45
2022-10-16T19:40:22.961Z,86.75
2022-10-16T19:42:53.205Z,87.21
2022-10-16T19:45:27.506Z,87.46
2022-10-16T19:48:01.179Z,87.86
2022-10-16T19:50:28.809Z,87.86
2022-10-16T19:52:59.285Z,88.40
2022-10-16T19:55:27.369Z,89.18
2022-10-16T19:58:01.131Z,89.28
2022-10-16T20:00:32.033Z,89.39
2022-10-16T20:02:59.765Z,90.24
2022-10-16T20:05:27.832Z,89.70
2022-10-16T20:08:01.351Z,89.83
2022-10-16T20:10:36.576Z,88.21
2022-10-16T20:13:04.137Z,85.96
2022-10-16T20:15:37.051Z,84.87
2022-10-16T20:18:10.823Z,84.04
2022-10-16T20:20:39.838Z,83.66
2022-10-16T20:23:13.367Z,83.34
2022-10-16T20:25:47.726Z,83.81
2022-10-16T20:28:19.288Z,83.81
2022-10-16T20:30:52.684Z,83.38
2022-10-16T20:33:26.107Z,83.92
2022-10-16T20:35:53.799Z,84.06
2022-10-16T20:38:21.456Z,84.61
2022-10-16T20:40:52.100Z,84.35
2022-10-16T20:43:22.717Z,83.80
2022-10-16T20:46:04.958Z,84.13
2022-10-16T20:48:36.662Z,84.43
2022-10-16T20:51:31.815Z,84.38
2022-10-16T20:54:05.488Z,84.45
2022-10-16T20:56:40.321Z,84.25
2022-10-16T20:59:08.381Z,84.75
2022-10-16T21:01:42.015Z,84.67
2022-10-16T21:04:16.124Z,84.37
2022-10-16T21:06:46.615Z,83.75
2022-10-16T21:09:18.751Z,83.78
2022-10-16T21:12:01.738Z,84.36
2022-10-16T21:14:42.376Z,84.75
2022-10-16T21:17:24.487Z,85.01
2022-10-16T21:19:57.752Z,84.24
2022-10-16T21:22:30.055Z,84.42
2022-10-16T21:25:06.316Z,84.62
2022-10-16T21:27:38.210Z,85.66
2022-10-16T21:30:09.981Z,85.03
2022-10-16T21:32:41.224Z,84.97
2022-10-16T21:35:12.272Z,85.08
2022-10-16T21:37:39.911Z,85.53
2022-10-16T21:40:08.863Z,86.17
2022-10-16T21:42:39.749Z,86.25
2022-10-16T21:45:10.727Z,85.50
2022-10-16T21:47:41.052Z,86.48
2022-10-16T21:50:09.093Z,88.39
2022-10-16T21:52:54.287Z,86.46
2022-10-16T21:55:21.790Z,87.25
2022-10-16T21:57:54.981Z,87.66
2022-10-16T22:00:23.945Z,90.84
2022-10-16T22:02:54.792Z,89.18
2022-10-16T22:05:22.321Z,89.91
2022-10-16T22:07:52.649Z,90.86
2022-10-16T22:10:26.511Z,91.96
2022-10-16T22:12:54.775Z,91.28
2022-10-16T22:17:57.024Z,90.65
2022-10-16T22:20:27.865Z,91.38
2022-10-16T22:22:57.905Z,91.11
2022-10-16T22:25:28.460Z,91.15
2022-10-16T22:27:58.530Z,91.08
2022-10-16T22:30:29.927Z,91.55
2022-10-16T22:33:01.300Z,91.33
2022-10-16T22:35:29.003Z,91.09
2022-10-16T22:37:56.795Z,91.22
2022-10-16T22:40:24.610Z,91.69
2022-10-16T22:42:52.275Z,91.50
2022-10-16T22:45:22.673Z,90.85
2022-10-16T22:47:53.419Z,90.30
2022-10-16T22:50:20.891Z,90.95
2022-10-16T22:52:50.740Z,90.64
2022-10-16T22:55:18.844Z,90.01
2022-10-16T22:57:46.891Z,91.32
2022-10-16T23:00:18.601Z,90.33
2022-10-16T23:02:47.376Z,90.75
2022-10-16T23:05:15.072Z,91.01
2022-10-16T23:07:45.620Z,90.91
2022-10-16T23:10:13.208Z,90.38
2022-10-16T23:12:43.084Z,90.75
2022-10-16T23:15:13.431Z,90.82
2022-10-16T23:17:40.951Z,91.33
2022-10-16T23:20:11.924Z,91.39
2022-10-16T23:22:43.305Z,92.16
2022-10-16T23:25:13.482Z,91.85
2022-10-16T23:27:44.074Z,91.86
2022-10-16T23:30:11.635Z,91.83
2022-10-16T23:32:40.434Z,92.42
2022-10-16T23:35:10.875Z,92.30
2022-10-16T23:37:45.209Z,92.34
2022-10-16T23:40:15.344Z,92.42
2022-10-16T23:42:42.992Z,93.07
2022-10-16T23:45:10.459Z,92.94
2022-10-16T23:47:42.171Z,92.89
2022-10-16T23:50:13.042Z,92.61
2022-10-16T23:52:44.521Z,92.42
2022-10-16T23:55:11.931Z,92.17
2022-10-16T23:57:46.115Z,92.19
